Pineland, South Carolina
Current Conditions -  °F | °C
As of 11:35 AM on Wednesday 26 Nov 2014 (Local Time) from KJYL Reporting Station
Overcast Overcast  
Wind Chill: 52°   Ceiling: 1000
Heat Index: 52°   Visibility: 10mi
Dew Point: 50°   Wind: 8mph
Humidity: 94%   Direction: 290°WNW
Pressure: 30.08"   Gusts: NA
Location:  32.6°N, 81.16°W
Report Text: KJYL 261635Z AUTO 29007KT 10SM BKN010 OVC015 11/10 A3008 RMK AO2 T01100100
Loading
Personal Weather Stations






























Interactive Weather Map New forecast layout! Learn more

10-Day Weather Forecast

Advertisements
Track Severe Weather on mobile